createdAt,value
2022-10-02T05:39:40.774Z,82.30
2022-10-02T05:42:52.610Z,82.30
2022-10-02T05:46:01.722Z,82.30
2022-10-02T05:49:06.725Z,82.50
2022-10-02T05:52:12.341Z,82.60
2022-10-02T05:55:19.562Z,82.40
2022-10-02T05:58:27.076Z,82.40
2022-10-02T06:01:30.638Z,82.50
2022-10-02T06:04:39.947Z,82.50
2022-10-02T06:07:43.398Z,82.60
2022-10-02T06:10:54.151Z,82.70
2022-10-02T06:14:23.935Z,82.80
2022-10-02T06:17:28.871Z,82.80
2022-10-02T06:20:58.546Z,82.80
2022-10-02T06:24:02.475Z,82.90
2022-10-02T06:27:14.442Z,82.90
2022-10-02T06:30:17.233Z,82.80
2022-10-02T06:33:23.770Z,82.90
2022-10-02T06:36:55.071Z,82.90
2022-10-02T06:40:09.712Z,83.00
2022-10-02T06:43:27.174Z,82.90
2022-10-02T06:46:36.908Z,83.00
2022-10-02T06:50:15.838Z,83.00
2022-10-02T06:53:45.465Z,83.10
2022-10-02T06:57:16.957Z,83.00
2022-10-02T07:00:19.402Z,82.90
2022-10-02T07:03:27.654Z,83.00
2022-10-02T07:06:52.655Z,83.00
2022-10-02T07:10:00.971Z,83.00
2022-10-02T07:13:35.472Z,83.00
2022-10-02T07:16:52.195Z,83.10
2022-10-02T07:20:31.356Z,83.20
2022-10-02T07:24:02.705Z,83.20
2022-10-02T07:27:16.110Z,83.20
2022-10-02T07:30:18.250Z,83.20
2022-10-02T07:33:30.599Z,83.20
2022-10-02T07:36:56.930Z,83.30
2022-10-02T07:40:10.197Z,83.30
2022-10-02T07:43:18.159Z,83.20
2022-10-02T07:46:45.563Z,83.10
2022-10-02T07:50:00.271Z,83.00
2022-10-02T07:53:40.852Z,83.00
2022-10-02T07:56:43.677Z,83.00
2022-10-02T07:59:45.854Z,83.00
2022-10-02T08:02:55.249Z,83.20
2022-10-02T08:05:57.431Z,83.20
2022-10-02T08:09:05.715Z,83.20
2022-10-02T08:12:41.354Z,83.10
2022-10-02T08:15:43.509Z,83.30
2022-10-02T08:18:48.822Z,83.20
2022-10-02T08:21:57.244Z,83.10
2022-10-02T08:25:28.834Z,83.10
2022-10-02T08:29:05.561Z,83.10
2022-10-02T08:32:11.881Z,83.20
2022-10-02T08:35:17.788Z,83.00
2022-10-02T08:38:36.703Z,83.00
2022-10-02T08:41:47.345Z,83.00
2022-10-02T08:45:08.135Z,82.90
2022-10-02T08:48:31.665Z,82.90
2022-10-02T08:51:55.115Z,82.90
2022-10-02T08:55:17.925Z,83.00
2022-10-02T08:58:28.681Z,83.00
2022-10-02T09:01:45.138Z,83.10
2022-10-02T09:05:09.682Z,83.00
2022-10-02T09:08:49.124Z,82.80
2022-10-02T09:12:01.505Z,82.50
2022-10-02T09:15:45.002Z,82.40
2022-10-02T09:19:03.642Z,82.30
2022-10-02T09:22:46.355Z,82.00
2022-10-02T09:25:56.743Z,81.90
2022-10-02T09:29:06.377Z,82.10
2022-10-02T09:32:45.780Z,82.20
2022-10-02T09:35:50.529Z,81.90
2022-10-02T09:39:11.083Z,81.80
2022-10-02T09:42:41.047Z,81.50
2022-10-02T09:45:51.432Z,81.20
2022-10-02T09:49:08.957Z,81.00
2022-10-02T09:52:46.335Z,81.00
2022-10-02T09:55:56.843Z,80.90
2022-10-02T09:59:35.405Z,80.70
2022-10-02T10:03:16.298Z,80.40
2022-10-02T10:06:17.998Z,80.10
2022-10-02T10:09:39.128Z,80.00
2022-10-02T10:12:49.338Z,79.70
2022-10-02T10:16:30.473Z,80.00
2022-10-02T10:19:42.035Z,80.20
2022-10-02T10:22:57.859Z,80.20
2022-10-02T10:26:15.070Z,80.00
2022-10-02T10:29:45.288Z,79.80
2022-10-02T10:33:05.019Z,79.60
2022-10-02T10:36:06.634Z,79.10
2022-10-02T10:39:31.475Z,78.70
2022-10-02T10:43:06.465Z,78.00
2022-10-02T10:46:43.299Z,77.60
2022-10-02T10:50:04.683Z,76.90
2022-10-02T10:53:26.727Z,76.50
2022-10-02T10:56:46.238Z,76.20
2022-10-02T11:00:08.729Z,75.70
2022-10-02T11:03:49.647Z,75.20
2022-10-02T11:07:15.541Z,74.70
2022-10-02T11:10:31.576Z,74.20
2022-10-02T11:13:33.804Z,73.80
2022-10-02T11:16:59.686Z,73.70
2022-10-02T11:20:07.261Z,73.30
2022-10-02T11:23:27.723Z,73.00
2022-10-02T11:27:10.064Z,73.20
2022-10-02T11:30:23.251Z,72.80
2022-10-02T11:33:38.221Z,72.10
2022-10-02T11:36:48.679Z,71.10
2022-10-02T11:39:57.199Z,70.40
2022-10-02T11:43:16.620Z,69.70
2022-10-02T11:46:27.952Z,68.90
2022-10-02T11:49:41.491Z,68.50
2022-10-02T11:53:07.745Z,68.70
2022-10-02T11:56:22.184Z,68.80
2022-10-02T11:59:28.231Z,68.20
2022-10-02T12:03:02.354Z,67.50
2022-10-02T12:06:06.588Z,66.40
2022-10-02T12:09:30.074Z,66.00
2022-10-02T12:12:40.846Z,65.40
2022-10-02T12:16:01.119Z,64.90
2022-10-02T12:19:19.872Z,64.10
2022-10-02T12:22:45.270Z,64.10
2022-10-02T12:26:12.299Z,63.80
2022-10-02T12:29:31.808Z,63.10
2022-10-02T12:33:01.731Z,62.60
2022-10-02T12:36:19.298Z,61.70
2022-10-02T12:39:51.620Z,60.70
2022-10-02T12:43:38.246Z,60.70
2022-10-02T12:47:04.848Z,60.40
2022-10-02T12:50:36.654Z,59.90
2022-10-02T12:54:00.884Z,59.50
2022-10-02T12:57:39.267Z,58.90
2022-10-02T13:01:13.952Z,58.70
2022-10-02T13:04:39.086Z,57.90
2022-10-02T13:08:16.579Z,57.60
2022-10-02T13:11:27.220Z,56.50
2022-10-02T13:14:49.787Z,56.20
2022-10-02T13:18:25.490Z,55.70
2022-10-02T13:21:50.861Z,55.50
2022-10-02T13:25:16.954Z,55.30
2022-10-02T13:28:40.475Z,55.20
2022-10-02T13:32:16.142Z,55.00
2022-10-02T13:35:59.878Z,54.40
2022-10-02T13:39:11.049Z,54.10
2022-10-02T13:42:21.920Z,53.50
2022-10-02T13:45:29.508Z,53.70
2022-10-02T13:48:54.963Z,53.50
2022-10-02T13:51:58.129Z,52.90
2022-10-02T13:55:12.100Z,52.10
2022-10-02T13:58:23.300Z,51.60
2022-10-02T14:01:37.162Z,51.00
2022-10-02T14:04:48.309Z,50.80
2022-10-02T14:08:25.878Z,50.60
2022-10-02T14:11:51.684Z,50.60
2022-10-02T14:15:02.258Z,50.70
2022-10-02T14:18:07.343Z,50.80
2022-10-02T14:21:11.754Z,51.00
2022-10-02T14:24:57.947Z,51.20
2022-10-02T14:28:23.143Z,51.50
2022-10-02T14:31:49.626Z,51.50
2022-10-02T14:35:17.070Z,51.50
2022-10-02T14:38:34.540Z,51.80
2022-10-02T14:41:55.879Z,52.20
2022-10-02T14:45:21.686Z,52.10
2022-10-02T14:48:35.430Z,52.20
2022-10-02T14:51:47.790Z,52.30
2022-10-02T14:54:59.693Z,52.30
2022-10-02T14:58:12.444Z,52.30
2022-10-02T15:01:22.267Z,52.30
2022-10-02T15:04:30.834Z,51.80
2022-10-02T15:07:33.111Z,50.50
2022-10-02T15:10:35.392Z,50.00
2022-10-02T15:13:46.194Z,49.50
2022-10-02T15:17:13.247Z,48.60
2022-10-02T15:20:26.201Z,48.20
2022-10-02T15:23:34.442Z,47.80
2022-10-02T15:27:14.724Z,48.20
2022-10-02T15:30:21.174Z,48.20
2022-10-02T15:33:33.808Z,48.50
2022-10-02T15:36:41.561Z,47.90
2022-10-02T15:39:54.767Z,47.00
2022-10-02T15:42:58.619Z,46.40
2022-10-02T15:46:29.950Z,46.20
2022-10-02T15:49:47.543Z,45.70
2022-10-02T15:53:05.472Z,45.20
2022-10-02T15:56:29.247Z,45.70
2022-10-02T15:59:48.648Z,46.80
2022-10-02T16:02:59.510Z,47.80
2022-10-02T16:06:12.387Z,48.10
2022-10-02T16:09:29.332Z,47.20
2022-10-02T16:12:46.024Z,46.00
2022-10-02T16:16:00.229Z,45.20
2022-10-02T16:19:23.382Z,44.80
2022-10-02T16:22:37.911Z,44.40
2022-10-02T16:26:10.636Z,44.30
2022-10-02T16:29:27.548Z,43.90
2022-10-02T16:32:44.031Z,44.00
2022-10-02T16:36:16.806Z,44.10
2022-10-02T16:39:21.498Z,44.00
2022-10-02T16:42:32.023Z,43.90
2022-10-02T16:46:03.970Z,43.60
2022-10-02T16:49:51.127Z,43.80
2022-10-02T16:52:54.290Z,44.90
2022-10-02T16:56:06.435Z,46.00
2022-10-02T16:59:26.383Z,46.70
2022-10-02T17:02:37.284Z,47.30
2022-10-02T17:06:00.111Z,47.70
2022-10-02T17:09:17.175Z,48.10
2022-10-02T17:12:26.515Z,48.50
2022-10-02T17:15:46.826Z,48.80
2022-10-02T17:18:57.508Z,49.50
2022-10-02T17:22:36.116Z,50.00
2022-10-02T17:26:06.140Z,50.80
2022-10-02T17:29:52.940Z,51.20
2022-10-02T17:33:14.069Z,51.80
2022-10-02T17:36:24.665Z,52.10
2022-10-02T17:40:00.519Z,52.80
2022-10-02T17:43:17.997Z,53.40
2022-10-02T17:46:36.321Z,54.00
2022-10-02T17:49:52.388Z,54.40
2022-10-02T17:53:37.854Z,54.80
2022-10-02T17:56:39.655Z,55.20
2022-10-02T18:00:04.345Z,55.60
2022-10-02T18:03:31.633Z,56.00
2022-10-02T18:06:42.776Z,56.40
2022-10-02T18:09:47.258Z,56.90
2022-10-02T18:13:06.907Z,57.10
2022-10-02T18:16:50.824Z,57.60
2022-10-02T18:20:04.321Z,58.20
2022-10-02T18:23:22.850Z,58.60
2022-10-02T18:26:28.671Z,58.80
2022-10-02T18:29:42.490Z,59.20
2022-10-02T18:32:53.025Z,59.60
2022-10-02T18:36:34.843Z,60.00
2022-10-02T18:39:50.940Z,60.50
2022-10-02T18:43:18.571Z,60.90
2022-10-02T18:46:39.013Z,61.70
2022-10-02T18:50:03.575Z,62.20
2022-10-02T18:53:08.660Z,62.40
2022-10-02T18:56:13.580Z,62.60
2022-10-02T18:59:28.057Z,62.90
2022-10-02T19:02:48.562Z,63.20
2022-10-02T19:06:17.751Z,63.40
2022-10-02T19:09:27.468Z,63.50
2022-10-02T19:12:29.550Z,63.70
2022-10-02T19:15:32.176Z,63.80
2022-10-02T19:18:34.172Z,64.20
2022-10-02T19:21:36.008Z,64.40
2022-10-02T19:24:39.733Z,64.40
2022-10-02T19:27:43.593Z,64.60
2022-10-02T19:30:50.070Z,64.70
2022-10-02T19:33:54.695Z,65.00
2022-10-02T19:37:04.547Z,65.20
2022-10-02T19:40:10.076Z,65.30
2022-10-02T19:43:25.941Z,65.50
2022-10-02T19:46:44.414Z,65.80
2022-10-02T19:49:49.133Z,66.20
2022-10-02T19:52:53.693Z,66.20
2022-10-02T19:55:59.649Z,66.40
2022-10-02T19:59:33.798Z,66.70
2022-10-02T20:02:40.388Z,67.20
2022-10-02T20:05:42.145Z,67.10
2022-10-02T20:08:46.531Z,67.20
2022-10-02T20:12:01.108Z,67.20
2022-10-02T20:15:10.916Z,67.40
2022-10-02T20:18:14.209Z,67.60
2022-10-02T20:21:17.542Z,67.70
2022-10-02T20:24:35.955Z,68.10
2022-10-02T20:27:40.795Z,68.40
2022-10-02T20:30:45.808Z,68.60
2022-10-02T20:33:50.333Z,68.80
2022-10-02T20:37:05.207Z,68.90
2022-10-02T20:40:17.899Z,69.20
